Time;durP1;ratioP1;P1;durP2;ratioP2;P2;SDS_P1;SDS_P2;PMS_P1;PMS_P2;Temp;Humidity;BMP_temperature;BMP_pressure;BME280_temperature;BME280_humidity;BME280_pressure;Samples;Min_cycle;Max_cycle;Signal;HPM_P1;HPM_P2
2021/12/02 03:50:44;;;;;;;;;1.00;1.00;;;;;7.80;67.91;100272.13;6091275;22;46444;31
2021/12/02 03:53:36;;;;;;;;;2.00;2.00;;;;;7.76;67.89;100274.50;5093258;23;45996;-96
2021/12/02 03:56:03;;;;;;;;;1.00;1.00;;;;;7.54;67.47;100247.34;5173899;22;47269;-96
2021/12/02 03:58:29;;;;;;;;;2.00;0.00;;;;;7.47;66.96;100240.91;5026892;28;44775;-96
2021/12/02 04:00:56;;;;;;;;;1.00;0.00;;;;;7.42;66.57;100243.28;5027524;28;44735;-96
2021/12/02 04:03:22;;;;;;;;;1.00;1.00;;;;;7.48;66.21;100261.88;5004792;28;44790;-96
2021/12/02 04:05:49;;;;;;;;;1.67;1.67;;;;;7.34;66.30;100244.63;5005205;28;47378;-96
2021/12/02 04:08:14;;;;;;;;;2.00;1.00;;;;;7.35;66.27;100241.19;5024174;28;45273;-96
2021/12/02 04:10:41;;;;;;;;;2.00;2.00;;;;;7.29;66.25;100240.88;5034487;28;44738;-96
2021/12/02 04:13:23;;;;;;;;;0.00;0.00;;;;;7.43;65.70;100268.59;5018434;28;45366;-96
2021/12/02 04:15:55;;;;;;;;;2.33;0.67;;;;;7.38;65.08;100284.03;5020957;28;46361;-96
2021/12/02 04:18:22;;;;;;;;;4.33;0.67;;;;;7.08;65.38;100245.09;5145762;22;46103;-96
2021/12/02 04:20:48;;;;;;;;;5.33;2.00;;;;;7.07;65.86;100245.91;4974701;28;45224;-97
2021/12/02 04:23:14;;;;;;;;;2.00;2.00;;;;;7.06;65.54;100253.66;4977757;28;44910;-96
2021/12/02 04:38:29;;;;;;;;;3.00;2.00;;;;;6.66;65.37;100280.34;4974729;28;44661;-96
2021/12/02 04:40:56;;;;;;;;;4.00;2.00;;;;;6.52;66.51;100276.09;4952903;28;44722;-96
2021/12/02 04:43:22;;;;;;;;;5.00;1.33;;;;;6.48;66.04;100286.34;4940543;28;45214;-95
2021/12/02 04:45:48;;;;;;;;;3.00;2.00;;;;;6.43;65.93;100282.59;4939244;28;46347;-96
2021/12/02 04:48:15;;;;;;;;;2.00;1.33;;;;;6.39;65.95;100283.22;4950958;28;44815;-96
2021/12/02 04:50:41;;;;;;;;;1.33;1.33;;;;;6.36;66.14;100286.59;4939270;28;45256;-96
2021/12/02 04:53:06;;;;;;;;;1.00;0.33;;;;;6.34;66.05;100285.56;4941954;28;45458;-96
2021/12/02 04:55:32;;;;;;;;;0.00;0.00;;;;;6.28;66.06;100282.66;4976217;28;46458;-96
2021/12/02 04:57:57;;;;;;;;;1.67;1.67;;;;;6.26;66.52;100290.38;4975090;28;45411;-96
2021/12/02 05:00:25;;;;;;;;;1.00;1.00;;;;;6.20;66.51;100286.53;4978261;28;45403;-96
2021/12/02 05:02:53;;;;;;;;;2.00;1.67;;;;;6.21;66.06;100298.75;4962555;28;45001;-96
2021/12/02 05:05:18;;;;;;;;;3.33;2.00;;;;;6.31;66.23;100329.75;4994605;28;47075;-96
2021/12/02 05:07:44;;;;;;;;;0.00;0.00;;;;;6.15;66.10;100304.53;4958456;28;45264;-96
2021/12/02 05:10:10;;;;;;;;;2.00;2.00;;;;;6.17;66.38;100309.81;4961874;28;44665;-96
2021/12/02 05:12:36;;;;;;;;;1.00;1.00;;;;;6.17;66.74;100313.31;4997799;28;44814;-96
2021/12/02 05:15:03;;;;;;;;;1.00;1.00;;;;;6.12;66.41;100312.16;4968020;28;46698;-96
2021/12/02 05:17:29;;;;;;;;;1.33;1.33;;;;;6.10;66.57;100313.78;5505322;23;46645;-96
2021/12/02 05:19:55;;;;;;;;;1.67;1.67;;;;;6.08;66.12;100305.00;5129955;22;44829;-96
2021/12/02 05:39:40;;;;;;;;;3.00;1.50;;;;;6.12;67.09;100375.59;6066099;23;45960;31
2021/12/02 05:42:06;;;;;;;;;1.00;1.00;;;;;5.85;66.77;100331.47;4961248;28;44797;-96
2021/12/02 05:49:36;;;;;;;;;1.67;1.33;;;;;5.87;67.05;100336.78;4974901;28;44749;-96
2021/12/02 05:57:27;;;;;;;;;6.33;3.00;;;;;5.76;67.42;100337.06;6003854;23;46345;-96
2021/12/02 05:59:53;;;;;;;;;5.00;2.00;;;;;5.72;67.02;100335.06;5001066;28;45363;-96
2021/12/02 06:07:33;;;;;;;;;2.00;2.00;;;;;5.63;67.11;100339.75;5032284;23;46183;-96
2021/12/02 06:09:59;;;;;;;;;5.33;2.33;;;;;5.86;67.00;100387.97;5322718;23;46144;-96
2021/12/02 06:12:25;;;;;;;;;5.00;5.00;;;;;5.61;66.59;100342.28;4984691;28;44832;-96
2021/12/02 06:14:50;;;;;;;;;2.00;2.00;;;;;5.76;66.97;100373.53;5019546;28;44841;-96
2021/12/02 06:17:17;;;;;;;;;6.00;3.00;;;;;5.72;66.88;100362.84;5001187;28;46773;-96
2021/12/02 06:19:42;;;;;;;;;1.67;1.67;;;;;5.62;66.69;100349.25;5001819;28;44764;-96
2021/12/02 06:22:09;;;;;;;;;5.67;2.00;;;;;5.81;66.34;100385.13;5066939;23;44895;-96
2021/12/02 06:27:27;;;;;;;;;2.67;2.67;;;;;5.69;66.91;100371.38;4951300;28;45592;-96
2021/12/02 06:29:52;;;;;;;;;2.00;2.00;;;;;5.51;66.90;100333.03;4942981;28;44834;-96
2021/12/02 06:37:29;;;;;;;;;2.33;2.33;;;;;5.45;66.48;100351.78;5336479;23;45836;-96
2021/12/02 06:39:55;;;;;;;;;2.00;2.00;;;;;5.47;66.57;100347.56;5022005;28;45104;-96
2021/12/02 06:42:22;;;;;;;;;1.33;1.33;;;;;5.45;66.51;100356.97;5025050;28;44806;-96
2021/12/02 06:44:47;;;;;;;;;3.00;1.67;;;;;5.41;66.60;100357.59;5018805;28;44835;-96
2021/12/02 06:47:16;;;;;;;;;3.00;2.00;;;;;5.41;66.38;100368.00;5017057;28;47842;-96
2021/12/02 06:49:42;;;;;;;;;3.00;3.00;;;;;5.38;66.58;100377.34;5017285;28;44845;-96
2021/12/02 06:52:13;;;;;;;;;6.33;5.00;;;;;5.57;66.64;100424.50;5017657;28;44862;-96
2021/12/02 06:57:12;;;;;;;;;4.33;2.33;;;;;5.38;66.67;100405.97;4979260;28;45414;-96
2021/12/02 07:09:53;;;;;;;;;7.75;5.00;;;;;5.67;66.99;100428.56;5017439;28;45279;-96
2021/12/02 07:12:29;;;;;;;;;5.00;5.00;;;;;5.72;66.13;100422.75;5001980;28;45244;-96
2021/12/02 07:14:58;;;;;;;;;5.50;4.00;;;;;5.75;66.14;100433.31;5017381;28;44918;-96
2021/12/02 07:17:24;;;;;;;;;6.25;5.50;;;;;5.70;65.80;100433.03;5008277;28;45615;-96
2021/12/02 07:19:51;;;;;;;;;3.33;3.33;;;;;5.65;65.91;100430.16;5017694;28;45159;-96
2021/12/02 07:22:17;;;;;;;;;6.00;3.75;;;;;5.67;66.13;100445.91;5018632;28;44829;-96
2021/12/02 07:24:47;;;;;;;;;7.50;5.75;;;;;5.80;65.73;100477.06;4996458;28;45304;-96
2021/12/02 07:27:12;;;;;;;;;6.00;3.67;;;;;5.78;65.60;100483.91;4987717;28;47357;-84
2021/12/02 07:29:39;;;;;;;;;6.00;3.00;;;;;5.85;65.73;100489.50;4984311;28;45535;-84
2021/12/02 07:32:05;;;;;;;;;5.00;4.33;;;;;5.84;66.25;100487.69;4993673;28;45393;-84
2021/12/02 07:34:34;;;;;;;;;5.00;3.00;;;;;5.84;65.82;100487.69;5000257;28;45546;-83
2021/12/02 07:37:00;;;;;;;;;2.00;2.00;;;;;5.78;65.93;100490.81;4998790;28;46431;-86
2021/12/02 07:39:26;;;;;;;;;5.00;2.67;;;;;5.81;66.00;100480.59;4979975;28;45344;-83
2021/12/02 07:41:52;;;;;;;;;3.00;3.00;;;;;5.81;66.12;100480.59;4990091;28;45418;-83
2021/12/02 07:44:18;;;;;;;;;2.00;2.00;;;;;5.86;66.12;100480.84;4963110;28;45349;-83
2021/12/02 07:46:44;;;;;;;;;6.67;5.33;;;;;5.90;65.74;100478.53;4992556;28;45443;-83
2021/12/02 07:49:12;;;;;;;;;2.33;2.33;;;;;5.95;66.06;100477.91;4992529;28;45514;-84
2021/12/02 07:51:42;;;;;;;;;4.67;4.67;;;;;6.01;66.22;100487.00;5001879;28;45672;-83
2021/12/02 07:54:08;;;;;;;;;3.00;1.00;;;;;5.92;65.75;100466.53;4995577;28;45505;-83
2021/12/02 07:56:33;;;;;;;;;3.00;3.00;;;;;6.06;65.64;100487.25;4992589;28;45517;-83
2021/12/02 07:58:59;;;;;;;;;2.67;2.67;;;;;6.13;65.58;100493.78;4987439;28;45718;-83
2021/12/02 08:01:25;;;;;;;;;5.00;3.00;;;;;6.10;65.89;100491.91;5001666;28;45466;-84
2021/12/02 08:03:51;;;;;;;;;2.33;1.00;;;;;6.13;66.06;100492.06;4984226;28;46431;-84
2021/12/02 08:06:17;;;;;;;;;1.00;1.00;;;;;6.18;65.52;100500.19;4985180;28;46544;-85
2021/12/02 08:08:45;;;;;;;;;2.00;2.00;;;;;6.30;65.60;100509.50;4985475;28;45496;-85
2021/12/02 08:11:11;;;;;;;;;5.00;2.33;;;;;6.30;65.01;100506.91;4994367;28;46773;-84
2021/12/02 08:13:37;;;;;;;;;4.67;2.00;;;;;6.30;65.42;100507.81;4983323;28;45425;-84
2021/12/02 08:16:04;;;;;;;;;3.00;2.33;;;;;6.40;65.03;100514.47;4988706;28;46618;-83
2021/12/02 08:18:30;;;;;;;;;6.00;2.67;;;;;6.41;64.96;100507.53;4979327;28;45516;-84
2021/12/02 08:20:56;;;;;;;;;2.00;2.00;;;;;6.47;65.09;100514.00;4994985;28;45720;-84
2021/12/02 08:23:22;;;;;;;;;4.00;3.67;;;;;6.45;65.00;100513.03;4996662;28;45456;-83
2021/12/02 08:25:48;;;;;;;;;2.67;2.67;;;;;6.43;64.66;100513.75;4993598;28;46333;-84
2021/12/02 08:28:14;;;;;;;;;2.00;2.00;;;;;6.44;64.85;100512.94;4985492;28;45438;-84
2021/12/02 08:30:41;;;;;;;;;3.33;3.33;;;;;6.44;64.80;100524.25;4980747;28;45660;-84
2021/12/02 08:33:08;;;;;;;;;0.00;0.00;;;;;6.40;64.49;100532.72;4983936;28;45729;-84
2021/12/02 08:35:35;;;;;;;;;4.67;2.67;;;;;6.40;64.53;100537.03;4987228;28;45783;-83
2021/12/02 08:38:06;;;;;;;;;6.00;3.00;;;;;6.38;64.86;100544.75;4994953;28;45581;-84
2021/12/02 08:40:33;;;;;;;;;2.00;2.00;;;;;6.31;64.41;100542.59;4992536;28;45669;-85
2021/12/02 08:43:00;;;;;;;;;7.00;5.00;;;;;6.28;64.51;100539.81;4984450;28;45437;-85
2021/12/02 08:45:27;;;;;;;;;2.00;2.00;;;;;6.30;64.69;100551.22;4973853;28;47241;-85
2021/12/02 08:47:54;;;;;;;;;4.67;2.33;;;;;6.30;64.83;100548.63;4973689;28;45652;-84
2021/12/02 08:50:20;;;;;;;;;3.67;2.67;;;;;6.28;64.43;100552.84;4975092;28;45513;-84
2021/12/02 08:52:47;;;;;;;;;6.33;3.67;;;;;6.28;64.54;100556.34;4982377;28;45397;-84
2021/12/02 08:55:14;;;;;;;;;1.33;1.33;;;;;6.27;65.01;100541.50;4996450;28;45825;-85
2021/12/02 08:57:40;;;;;;;;;2.00;2.00;;;;;6.35;64.85;100552.41;4984119;28;45644;-85
2021/12/02 09:00:08;;;;;;;;;3.00;2.67;;;;;6.40;64.70;100560.50;4967336;28;45608;-85
2021/12/02 09:02:34;;;;;;;;;5.00;2.33;;;;;6.45;64.51;100566.88;4980463;28;45410;-85
2021/12/02 09:04:59;;;;;;;;;5.00;3.00;;;;;6.47;64.42;100568.75;4977261;28;47473;-85
2021/12/02 09:07:26;;;;;;;;;4.00;3.00;;;;;6.52;64.73;100570.78;4970258;28;46012;-86
2021/12/02 09:09:51;;;;;;;;;5.67;2.33;;;;;6.57;63.81;100570.19;4975007;28;45440;-85
2021/12/02 09:12:17;;;;;;;;;3.67;3.00;;;;;6.64;64.88;100562.75;4981959;28;45856;-85
2021/12/02 09:14:42;;;;;;;;;4.00;1.33;;;;;6.65;64.41;100570.66;4985535;28;47337;-85
2021/12/02 09:17:07;;;;;;;;;2.00;2.00;;;;;6.80;64.01;100577.59;4993213;28;45453;-85
2021/12/02 09:19:33;;;;;;;;;4.00;4.00;;;;;6.85;64.29;100580.47;4998979;28;45833;-86
2021/12/02 09:21:59;;;;;;;;;4.67;4.67;;;;;6.92;64.14;100580.00;4975984;28;45461;-86
2021/12/02 09:24:25;;;;;;;;;5.67;2.33;;;;;6.98;63.51;100571.63;4993178;28;46402;-85
2021/12/02 09:26:52;;;;;;;;;7.33;4.33;;;;;7.09;63.36;100570.53;4988286;28;45554;-86
2021/12/02 09:29:19;;;;;;;;;7.00;3.67;;;;;7.22;63.31;100577.34;4975611;28;46002;-86
2021/12/02 09:31:47;;;;;;;;;2.33;2.33;;;;;7.26;63.29;100584.56;4997709;28;45497;-85
2021/12/02 09:34:12;;;;;;;;;3.00;3.00;;;;;7.20;62.86;100575.44;4995382;28;45698;-86
2021/12/02 09:36:38;;;;;;;;;4.33;2.00;;;;;7.19;63.24;100582.38;4985524;28;45756;-86
2021/12/02 09:39:06;;;;;;;;;5.33;3.00;;;;;7.23;63.48;100586.06;4995382;28;45503;-85
2021/12/02 09:41:32;;;;;;;;;3.00;3.00;;;;;7.42;63.92;100594.94;5000769;28;45648;-85
2021/12/02 09:43:58;;;;;;;;;2.00;2.00;;;;;7.57;63.29;100598.41;4988980;28;46187;-85
2021/12/02 09:46:24;;;;;;;;;2.00;2.00;;;;;7.67;63.48;100593.69;4985096;28;45398;-85
2021/12/02 09:48:49;;;;;;;;;5.33;3.00;;;;;7.78;61.48;100591.66;4972429;28;45698;-85
2021/12/02 09:51:27;;;;;;;;;6.00;3.33;;;;;7.87;62.63;100596.47;4973595;28;45897;-85
2021/12/02 09:54:00;;;;;;;;;3.33;3.33;;;;;7.88;62.71;100598.28;4976231;28;47894;-85
2021/12/02 09:56:29;;;;;;;;;6.33;1.33;;;;;7.80;61.71;100604.00;4991061;28;45753;-85
2021/12/02 09:59:02;;;;;;;;;3.67;2.00;;;;;7.70;61.43;100610.44;4971532;28;45496;-85
2021/12/02 10:01:38;;;;;;;;;4.33;2.33;;;;;7.57;61.85;100595.81;4985902;28;45558;-85
2021/12/02 10:04:05;;;;;;;;;3.00;2.00;;;;;7.47;61.73;100604.81;4968269;28;48561;-85
2021/12/02 10:06:32;;;;;;;;;6.33;1.67;;;;;7.45;61.65;100613.38;4992472;28;45542;-85
2021/12/02 10:09:12;;;;;;;;;3.00;2.33;;;;;7.45;62.16;100619.50;4969050;28;45547;-85
2021/12/02 10:11:50;;;;;;;;;3.33;1.33;;;;;7.42;61.90;100615.84;4977170;28;48409;-85
2021/12/02 10:14:38;;;;;;;;;3.00;1.00;;;;;7.43;61.52;100613.31;4957237;28;46164;-85
2021/12/02 10:17:33;;;;;;;;;6.00;1.33;;;;;7.46;60.50;100629.16;4965019;28;45628;-85
2021/12/02 10:23:10;;;;;;;;;1.00;1.00;;;;;7.37;61.82;100615.59;4972199;28;49509;-85
2021/12/02 10:25:36;;;;;;;;;3.33;3.00;;;;;7.38;61.06;100627.81;4970437;28;45971;-86
2021/12/02 10:28:01;;;;;;;;;3.00;1.00;;;;;7.34;61.57;100631.97;4958134;28;45870;-85
2021/12/02 10:30:27;;;;;;;;;2.00;2.00;;;;;7.29;61.88;100632.53;4952119;28;45551;-86
2021/12/02 10:32:52;;;;;;;;;3.67;2.33;;;;;7.30;61.80;100632.59;4970176;28;45793;-85
2021/12/02 10:35:20;;;;;;;;;2.00;1.00;;;;;7.23;61.04;100628.75;4962472;28;45340;-85
2021/12/02 10:37:45;;;;;;;;;3.00;3.00;;;;;7.20;61.61;100612.91;4968828;28;45516;-85
2021/12/02 10:40:15;;;;;;;;;6.00;2.00;;;;;7.28;61.18;100620.28;4975889;28;46829;-85
2021/12/02 10:42:43;;;;;;;;;6.67;2.33;;;;;7.30;61.39;100621.25;4965390;28;45786;-85
2021/12/02 10:45:24;;;;;;;;;4.33;3.00;;;;;7.32;60.95;100617.91;4963524;28;48201;-85
2021/12/02 10:47:52;;;;;;;;;1.67;1.67;;;;;7.35;61.09;100607.66;4964494;28;45824;-84
2021/12/02 10:50:19;;;;;;;;;4.67;1.33;;;;;7.38;60.71;100600.00;4956546;28;45827;-84
2021/12/02 10:52:44;;;;;;;;;1.33;1.33;;;;;7.63;61.35;100597.84;4986042;28;45970;-84
2021/12/02 10:55:15;;;;;;;;;3.00;2.00;;;;;7.85;60.30;100609.47;4966046;28;46881;-85
2021/12/02 10:57:52;;;;;;;;;2.00;2.00;;;;;8.02;61.13;100592.06;4974335;28;45491;-85
2021/12/02 11:00:20;;;;;;;;;3.00;2.00;;;;;8.15;60.42;100596.25;4975220;28;45461;-85
2021/12/02 11:02:53;;;;;;;;;3.00;3.00;;;;;8.34;60.25;100597.22;4961166;28;45497;-85
2021/12/02 11:05:34;;;;;;;;;2.00;2.00;;;;;8.53;59.64;100589.41;4959997;28;47618;-87
2021/12/02 11:08:08;;;;;;;;;7.00;1.33;;;;;8.62;56.41;100589.91;4980098;28;45555;-85
2021/12/02 11:10:49;;;;;;;;;0.00;0.00;;;;;8.57;57.63;100584.41;4975249;28;45472;-88
2021/12/02 11:13:24;;;;;;;;;1.00;1.00;;;;;8.70;56.95;100596.44;4974541;28;45590;-86
2021/12/02 11:15:49;;;;;;;;;0.00;0.00;;;;;8.66;54.40;100588.38;4962180;28;47547;-85
2021/12/02 11:18:16;;;;;;;;;0.33;0.00;;;;;8.59;56.26;100595.88;4968735;28;45665;-85
2021/12/02 11:20:48;;;;;;;;;1.00;1.00;;;;;8.52;56.43;100587.63;4965725;28;45817;-84
2021/12/02 11:23:19;;;;;;;;;0.00;0.00;;;;;8.42;56.09;100588.88;4980961;28;45270;-84
2021/12/02 11:25:58;;;;;;;;;0.00;0.00;;;;;8.35;56.20;100582.44;4972344;28;45465;-84
2021/12/02 11:28:32;;;;;;;;;1.00;1.00;;;;;8.30;54.94;100584.78;4976446;28;46017;-85
2021/12/02 11:31:07;;;;;;;;;0.00;0.00;;;;;8.20;54.68;100590.34;4959578;28;45492;-85
2021/12/02 11:33:39;;;;;;;;;1.33;0.33;;;;;8.21;53.73;100598.28;4959688;28;45697;-86
2021/12/02 11:36:07;;;;;;;;;0.00;0.00;;;;;8.20;54.55;100582.50;4967519;28;46096;-84
2021/12/02 11:38:34;;;;;;;;;0.00;0.00;;;;;8.11;53.74;100591.69;4961208;28;47625;-85
2021/12/02 11:41:02;;;;;;;;;1.00;0.00;;;;;8.04;54.60;100582.59;4964950;28;45611;-85
2021/12/02 11:43:31;;;;;;;;;1.00;1.00;;;;;8.04;54.26;100587.81;4957280;28;45679;-85
2021/12/02 11:45:59;;;;;;;;;0.00;0.00;;;;;7.94;54.36;100582.91;4971444;28;45460;-84
2021/12/02 11:48:34;;;;;;;;;0.00;0.00;;;;;7.83;54.08;100583.25;4973804;28;46018;-84
2021/12/02 11:51:07;;;;;;;;;0.67;0.67;;;;;7.77;55.25;100580.31;4974001;28;45531;-85
2021/12/02 11:53:32;;;;;;;;;2.00;1.00;;;;;7.74;54.94;100571.41;4974770;28;53931;-84
2021/12/02 11:56:04;;;;;;;;;1.67;1.33;;;;;7.81;55.47;100570.91;4974894;28;45734;-84
2021/12/02 11:58:30;;;;;;;;;0.00;0.00;;;;;7.94;55.66;100567.22;4965421;28;46663;-86
2021/12/02 12:00:56;;;;;;;;;1.00;1.00;;;;;8.12;56.64;100572.53;4967944;28;45821;-85
2021/12/02 12:03:39;;;;;;;;;0.00;0.00;;;;;8.26;54.22;100564.53;4949710;28;45975;-84
2021/12/02 12:06:06;;;;;;;;;0.00;0.00;;;;;8.31;54.16;100564.75;4972865;28;45364;-84
2021/12/02 12:08:35;;;;;;;;;1.67;0.00;;;;;8.52;53.59;100561.44;4981758;28;45547;-85
2021/12/02 12:11:24;;;;;;;;;1.00;1.00;;;;;8.60;53.51;100561.06;4994378;28;45299;-86
2021/12/02 12:13:54;;;;;;;;;1.00;0.00;;;;;8.66;54.41;100568.31;4986864;28;45309;-86
2021/12/02 12:16:30;;;;;;;;;0.67;0.67;;;;;8.72;53.02;100567.72;4974853;28;46380;-85
2021/12/02 12:18:57;;;;;;;;;0.00;0.00;;;;;8.81;53.24;100557.69;4966633;28;46003;-84
2021/12/02 12:21:36;;;;;;;;;0.00;0.00;;;;;8.90;54.23;100564.22;4983137;28;45399;-85
2021/12/02 12:24:02;;;;;;;;;1.67;1.00;;;;;9.07;54.54;100572.03;4987918;28;45401;-84
2021/12/02 12:26:40;;;;;;;;;0.00;0.00;;;;;9.20;53.85;100574.38;4990114;28;47902;-85
2021/12/02 12:29:09;;;;;;;;;2.33;0.00;;;;;9.21;54.03;100570.94;4978733;28;45635;-83
2021/12/02 12:31:42;;;;;;;;;1.00;1.00;;;;;9.16;52.89;100578.59;4984414;28;45449;-84
2021/12/02 12:37:25;;;;;;;;;1.00;0.00;;;;;8.99;53.13;100576.88;4992691;28;46035;-85
2021/12/02 12:40:19;;;;;;;;;3.00;1.00;;;;;8.83;53.31;100568.25;4988491;28;45545;-84
2021/12/02 12:43:12;;;;;;;;;1.33;0.00;;;;;8.63;53.52;100562.94;4967826;28;45622;-84
2021/12/02 12:45:42;;;;;;;;;1.67;1.33;;;;;8.55;54.75;100564.22;4979532;28;45290;-83
2021/12/02 12:48:31;;;;;;;;;0.00;0.00;;;;;8.47;53.28;100566.47;4961776;28;46813;-84
2021/12/02 12:51:20;;;;;;;;;0.67;0.67;;;;;8.35;52.95;100579.81;4979311;28;45351;-83
2021/12/02 12:53:49;;;;;;;;;0.00;0.00;;;;;8.22;52.37;100583.50;4970276;28;46630;-82
2021/12/02 12:56:18;;;;;;;;;1.00;0.00;;;;;8.12;52.88;100583.00;4972428;28;45700;-82
2021/12/02 12:58:52;;;;;;;;;0.67;0.33;;;;;8.04;52.36;100584.34;4973410;28;45785;-84
2021/12/02 13:01:20;;;;;;;;;0.33;0.33;;;;;7.99;53.40;100578.84;4968764;28;45287;-83
2021/12/02 13:04:09;;;;;;;;;1.67;0.00;;;;;7.99;52.60;100585.81;4990357;28;45505;-83
2021/12/02 13:06:53;;;;;;;;;0.00;0.00;;;;;8.04;53.22;100594.78;4961634;28;46112;-83
2021/12/02 13:09:42;;;;;;;;;2.00;0.00;;;;;8.10;50.96;100586.34;4988857;28;46391;-82
2021/12/02 13:12:11;;;;;;;;;1.00;0.00;;;;;8.27;50.92;100595.97;4988140;28;45519;-83
2021/12/02 13:14:39;;;;;;;;;1.00;1.00;;;;;8.47;51.35;100582.16;4971677;28;45420;-82
2021/12/02 13:17:43;;;;;;;;;0.00;0.00;;;;;8.75;50.96;100599.28;4990849;28;45544;-82
2021/12/02 13:20:18;;;;;;;;;1.00;0.00;;;;;8.83;51.31;100592.72;4969123;28;47186;-83
2021/12/02 13:23:07;;;;;;;;;1.00;0.00;;;;;8.91;50.14;100592.19;4977981;28;45576;-83
2021/12/02 13:25:43;;;;;;;;;0.00;0.00;;;;;9.13;48.68;100598.47;4974662;28;45473;-83
2021/12/02 13:28:17;;;;;;;;;0.00;0.00;;;;;9.18;50.33;100603.94;4982505;28;45736;-83
2021/12/02 13:30:50;;;;;;;;;1.00;0.00;;;;;9.16;50.38;100596.94;4990360;28;45413;-83
2021/12/02 13:33:16;;;;;;;;;2.00;1.00;;;;;9.18;50.44;100591.75;4985116;28;45538;-83
2021/12/02 13:35:41;;;;;;;;;2.33;2.00;;;;;9.18;50.96;100597.00;4964739;28;45443;-83
2021/12/02 13:38:07;;;;;;;;;3.00;1.00;;;;;9.20;49.69;100597.94;4974054;28;45556;-83
2021/12/02 13:40:38;;;;;;;;;2.33;1.00;;;;;9.34;50.00;100592.50;4975988;28;47984;-83
2021/12/02 13:43:04;;;;;;;;;0.00;0.00;;;;;9.35;49.66;100599.53;4975542;28;45708;-83
2021/12/02 13:45:31;;;;;;;;;6.00;1.67;;;;;9.32;48.91;100610.78;4992666;28;45863;-83
2021/12/02 13:48:11;;;;;;;;;2.00;1.00;;;;;9.29;47.30;100608.00;4987834;28;45412;-83
2021/12/02 13:50:39;;;;;;;;;1.00;0.00;;;;;9.26;49.10;100600.88;4990063;28;45424;-83
2021/12/02 13:53:07;;;;;;;;;1.00;0.00;;;;;9.18;48.07;100609.19;4980285;28;45614;-83
2021/12/02 13:55:38;;;;;;;;;0.00;0.00;;;;;9.07;47.97;100608.69;4993200;28;45665;-83
2021/12/02 14:00:48;;;;;;;;;0.00;0.00;;;;;8.81;48.76;100607.44;4992463;28;45521;-83
2021/12/02 14:03:19;;;;;;;;;2.00;1.00;;;;;8.79;48.96;100613.41;4982143;28;45649;-83
2021/12/02 14:05:57;;;;;;;;;0.67;0.67;;;;;8.70;50.41;100613.84;4971852;28;45853;-82
2021/12/02 14:08:27;;;;;;;;;0.00;0.00;;;;;8.62;46.35;100616.06;4986452;28;45712;-82
2021/12/02 14:10:54;;;;;;;;;1.33;0.00;;;;;8.56;49.30;100618.34;4958627;28;45530;-83
2021/12/02 14:13:25;;;;;;;;;3.00;1.67;;;;;8.57;48.78;100618.44;4953022;28;45399;-82
2021/12/02 14:15:54;;;;;;;;;0.00;0.00;;;;;8.52;49.39;100621.63;4946159;28;45427;-83
2021/12/02 14:18:25;;;;;;;;;1.67;0.33;;;;;8.48;48.93;100616.22;4964565;28;45488;-83
2021/12/02 14:21:02;;;;;;;;;1.00;1.00;;;;;8.48;49.04;100628.41;4970638;28;45585;-82
2021/12/02 14:23:28;;;;;;;;;0.00;0.00;;;;;8.42;48.32;100629.00;4959517;28;45704;-83
2021/12/02 14:25:55;;;;;;;;;1.00;1.00;;;;;8.34;48.21;100638.16;4970661;28;45344;-83
2021/12/02 14:28:26;;;;;;;;;0.00;0.00;;;;;8.31;49.60;100651.97;4958198;28;45626;-83
2021/12/02 14:31:00;;;;;;;;;1.00;1.00;;;;;8.25;49.84;100651.63;4975797;28;46342;-83
2021/12/02 14:33:33;;;;;;;;;1.33;1.33;;;;;8.24;50.23;100658.59;4952102;28;45655;-82
2021/12/02 14:36:19;;;;;;;;;1.00;1.00;;;;;8.21;48.85;100657.53;4953572;28;45909;-83
2021/12/02 14:38:47;;;;;;;;;1.00;1.00;;;;;8.15;49.21;100658.09;4951551;28;45664;-83
2021/12/02 14:41:16;;;;;;;;;2.00;0.00;;;;;8.10;49.92;100673.53;4951698;28;48744;-83
2021/12/02 14:43:54;;;;;;;;;0.00;0.00;;;;;8.01;49.07;100668.72;4948737;28;45440;-83
2021/12/02 14:46:22;;;;;;;;;1.00;1.00;;;;;8.00;50.05;100668.63;4957235;28;45405;-82
2021/12/02 14:49:07;;;;;;;;;1.00;1.00;;;;;8.02;50.63;100670.50;4997830;28;45294;-82
2021/12/02 14:51:48;;;;;;;;;0.00;0.00;;;;;8.05;51.13;100675.91;4987480;28;45860;-82
2021/12/02 14:54:24;;;;;;;;;3.00;2.00;;;;;8.04;51.16;100686.28;4959789;28;45382;-83
2021/12/02 14:56:50;;;;;;;;;0.33;0.33;;;;;8.04;50.82;100681.94;4970854;28;45508;-81
2021/12/02 14:59:35;;;;;;;;;1.50;1.50;;;;;8.05;51.02;100688.97;4962585;28;45777;-82
2021/12/02 15:02:27;;;;;;;;;3.00;1.00;;;;;7.96;50.42;100683.25;4950428;28;47683;-82
2021/12/02 15:05:02;;;;;;;;;0.67;0.67;;;;;7.90;51.07;100699.50;4948569;28;45968;-82
2021/12/02 15:07:43;;;;;;;;;2.00;1.00;;;;;7.96;51.42;100704.16;4949098;28;45423;-81
2021/12/02 15:10:23;;;;;;;;;3.33;1.67;;;;;7.99;52.54;100712.16;4974093;28;45358;-82
2021/12/02 15:13:13;;;;;;;;;2.00;2.00;;;;;7.98;53.02;100710.38;4991523;28;45305;-82
2021/12/02 15:15:47;;;;;;;;;2.00;1.00;;;;;7.98;51.11;100718.22;4980900;28;45346;-82
2021/12/02 15:18:19;;;;;;;;;2.00;2.00;;;;;7.95;52.02;100723.25;4988413;28;45352;-84
2021/12/02 15:20:47;;;;;;;;;2.00;2.00;;;;;7.99;52.66;100732.19;4987492;28;45480;-84
2021/12/02 15:23:22;;;;;;;;;1.67;1.67;;;;;7.98;52.30;100735.59;4980127;28;45378;-88
2021/12/02 15:26:08;;;;;;;;;4.33;3.00;;;;;7.97;53.12;100739.94;4986080;28;45298;-85
2021/12/02 15:28:46;;;;;;;;;2.67;2.67;;;;;7.94;52.41;100743.25;4991286;28;45411;-84
2021/12/02 15:31:14;;;;;;;;;6.00;2.00;;;;;7.88;52.28;100750.78;4988707;28;45714;-83
2021/12/02 15:33:42;;;;;;;;;3.00;2.00;;;;;7.82;52.12;100750.41;4980865;28;45563;-83
2021/12/02 15:36:12;;;;;;;;;3.33;3.33;;;;;7.79;52.46;100766.81;4990165;28;45433;-82
2021/12/02 15:38:40;;;;;;;;;3.00;3.00;;;;;7.73;52.59;100765.59;4980863;28;45587;-82
2021/12/02 15:41:11;;;;;;;;;2.00;2.00;;;;;7.72;53.23;100772.50;4979639;28;45405;-82
2021/12/02 15:43:47;;;;;;;;;2.33;2.00;;;;;7.78;52.97;100780.69;4990618;28;46382;-82
2021/12/02 15:46:14;;;;;;;;;4.67;2.33;;;;;7.74;52.86;100783.94;4976077;28;45452;-83
2021/12/02 15:48:40;;;;;;;;;2.00;2.00;;;;;7.74;53.15;100789.19;4984627;28;45769;-81
2021/12/02 15:51:06;;;;;;;;;5.33;5.33;;;;;7.73;52.87;100794.31;4990352;28;45531;-82
2021/12/02 15:53:32;;;;;;;;;7.00;7.00;;;;;7.65;53.41;100792.19;4990888;28;45707;-82
2021/12/02 15:55:57;;;;;;;;;6.33;6.00;;;;;7.66;52.71;100800.88;4991240;28;45484;-82
2021/12/02 15:58:23;;;;;;;;;4.33;4.33;;;;;7.62;53.68;100804.16;4975589;28;45426;-83
2021/12/02 16:00:53;;;;;;;;;5.33;5.33;;;;;7.69;54.25;100811.53;4991625;28;45656;-82
2021/12/02 16:05:57;;;;;;;;;7.33;7.33;;;;;7.67;54.23;100821.00;4981662;28;45551;-82
2021/12/02 16:08:32;;;;;;;;;15.00;13.50;;;;;7.65;53.65;100820.00;4966714;28;45538;-82
2021/12/02 16:13:42;;;;;;;;;7.33;4.00;;;;;7.64;54.60;100831.25;4983587;28;45679;-83
2021/12/02 16:16:08;;;;;;;;;8.67;6.00;;;;;7.65;54.85;100833.97;4984047;28;45503;-83
2021/12/02 16:18:34;;;;;;;;;3.33;3.33;;;;;7.66;54.51;100827.00;4973560;28;45637;-82
2021/12/02 16:21:03;;;;;;;;;4.00;2.67;;;;;7.67;53.84;100834.06;4984987;28;45515;-82
2021/12/02 16:23:30;;;;;;;;;3.00;2.67;;;;;7.67;54.18;100845.41;4988593;28;46264;-82
2021/12/02 16:25:56;;;;;;;;;3.33;3.33;;;;;7.64;53.37;100844.31;4990876;28;45499;-83
2021/12/02 16:28:22;;;;;;;;;7.00;6.00;;;;;7.60;53.64;100840.66;4990078;28;45465;-82
2021/12/02 16:30:48;;;;;;;;;6.00;4.67;;;;;7.62;53.70;100845.94;4963065;28;45722;-83
2021/12/02 16:33:14;;;;;;;;;4.33;2.00;;;;;7.65;54.51;100852.28;4962027;28;47196;-83
2021/12/02 16:35:40;;;;;;;;;8.00;6.67;;;;;7.60;53.86;100845.88;4972888;28;45853;-82
2021/12/02 16:38:06;;;;;;;;;6.00;4.00;;;;;7.60;54.41;100857.19;4991710;28;45480;-82
2021/12/02 16:40:32;;;;;;;;;9.25;8.00;;;;;7.62;53.81;100859.91;4973446;28;45382;-82
2021/12/02 16:43:06;;;;;;;;;4.33;4.33;;;;;7.58;54.66;100860.53;4983682;28;46423;-84
2021/12/02 16:45:38;;;;;;;;;8.00;7.00;;;;;7.65;54.74;100861.81;4980357;28;45445;-84
2021/12/02 16:48:04;;;;;;;;;6.00;5.67;;;;;7.67;55.64;100866.31;4993226;28;45510;-83
2021/12/02 16:50:31;;;;;;;;;5.00;2.67;;;;;7.72;55.00;100874.44;4995001;28;45400;-83
2021/12/02 16:52:59;;;;;;;;;5.67;2.67;;;;;7.75;54.77;100881.53;4973571;28;45652;-83
2021/12/02 16:55:27;;;;;;;;;4.00;4.00;;;;;7.74;55.06;100877.13;4972567;28;46147;-83
2021/12/02 16:57:54;;;;;;;;;4.00;3.00;;;;;7.76;54.24;100881.63;4994571;28;45480;-83